createdAt,value
2023-04-11T00:01:23.720Z,6.93
2023-04-11T00:03:55.480Z,6.92
2023-04-11T00:06:28.237Z,6.88
2023-04-11T00:08:58.494Z,6.85
2023-04-11T00:11:39.255Z,6.83
2023-04-11T00:14:14.507Z,6.79
2023-04-11T00:16:51.849Z,6.76
2023-04-11T00:19:26.204Z,6.74
2023-04-11T00:22:04.128Z,6.69
2023-04-11T00:24:37.288Z,6.63
2023-04-11T00:27:19.970Z,6.58
2023-04-11T00:30:00.426Z,6.51
2023-04-11T00:32:38.793Z,6.46
2023-04-11T00:35:12.912Z,6.41
2023-04-11T00:37:44.573Z,6.37
2023-04-11T00:40:21.025Z,6.34
2023-04-11T00:42:53.322Z,6.32
2023-04-11T00:45:29.051Z,6.31
2023-04-11T00:48:03.104Z,6.31
2023-04-11T00:50:36.668Z,6.30
2023-04-11T00:53:19.169Z,6.29
2023-04-11T00:56:01.830Z,6.25
2023-04-11T00:58:42.470Z,6.23
2023-04-11T01:01:16.930Z,6.23
2023-04-11T01:03:50.387Z,6.26
2023-04-11T01:06:24.671Z,6.26
2023-04-11T01:09:07.135Z,6.22
2023-04-11T01:11:42.866Z,6.11
2023-04-11T01:14:19.198Z,6.09
2023-04-11T01:16:52.431Z,6.10
2023-04-11T01:19:33.268Z,6.08
2023-04-11T01:22:06.382Z,6.05
2023-04-11T01:24:41.460Z,6.07
2023-04-11T01:27:17.646Z,6.06
2023-04-11T01:29:48.142Z,6.06
2023-04-11T01:32:26.783Z,6.03
2023-04-11T01:35:10.090Z,5.99
2023-04-11T01:37:49.213Z,5.92
2023-04-11T01:40:25.281Z,5.84
2023-04-11T01:43:07.325Z,5.79
2023-04-11T01:45:50.484Z,5.74
2023-04-11T01:48:22.618Z,5.70
2023-04-11T01:51:00.469Z,5.66
2023-04-11T01:53:30.997Z,5.62
2023-04-11T01:56:03.994Z,5.59
2023-04-11T01:58:35.466Z,5.56
2023-04-11T02:01:08.981Z,5.52
2023-04-11T02:03:42.113Z,5.51
2023-04-11T02:06:17.417Z,5.51
2023-04-11T02:08:53.360Z,5.48
2023-04-11T02:11:27.113Z,5.45
2023-04-11T02:14:00.291Z,5.42
2023-04-11T02:16:30.809Z,5.39
2023-04-11T02:19:04.428Z,5.38
2023-04-11T02:21:36.898Z,5.36
2023-04-11T02:24:09.515Z,5.32
2023-04-11T02:26:49.597Z,5.31
2023-04-11T02:29:22.373Z,5.28
2023-04-11T02:31:52.245Z,5.23
2023-04-11T02:34:22.025Z,5.17
2023-04-11T02:36:53.570Z,5.15
2023-04-11T02:39:26.808Z,5.12
2023-04-11T02:41:58.194Z,5.10
2023-04-11T02:44:29.532Z,5.11
2023-04-11T02:46:59.646Z,5.12
2023-04-11T02:49:29.184Z,5.14
2023-04-11T02:51:58.959Z,5.16
2023-04-11T02:54:28.154Z,5.18
2023-04-11T02:56:58.236Z,5.22
2023-04-11T02:59:28.270Z,5.26
2023-04-11T03:01:59.915Z,5.31
2023-04-11T03:04:29.605Z,5.38
2023-04-11T03:07:08.847Z,5.45
2023-04-11T03:09:41.152Z,5.51
2023-04-11T03:12:11.702Z,5.58
2023-04-11T03:15:05.694Z,5.62
2023-04-11T03:17:53.723Z,5.64
2023-04-11T03:20:29.297Z,5.67
2023-04-11T03:23:03.600Z,5.70
2023-04-11T03:25:41.316Z,5.74
2023-04-11T03:28:21.714Z,5.77
2023-04-11T03:30:52.464Z,5.80
2023-04-11T03:33:23.992Z,5.82
2023-04-11T03:35:56.286Z,5.84
2023-04-11T03:38:29.530Z,5.84
2023-04-11T03:40:58.719Z,5.84
2023-04-11T03:43:28.208Z,5.83
2023-04-11T03:45:58.278Z,5.80
2023-04-11T03:48:40.440Z,5.75
2023-04-11T03:51:21.634Z,5.72
2023-04-11T03:54:25.161Z,5.69
2023-04-11T03:57:00.860Z,5.68
2023-04-11T03:59:42.985Z,5.69
2023-04-11T04:02:30.198Z,5.68
2023-04-11T04:05:22.104Z,5.67
2023-04-11T04:08:04.545Z,5.69
2023-04-11T04:11:04.057Z,5.68
2023-04-11T04:13:40.251Z,5.73
2023-04-11T04:16:17.610Z,5.77
2023-04-11T04:18:54.936Z,5.82
2023-04-11T04:21:38.566Z,5.82
2023-04-11T04:24:15.644Z,5.83
2023-04-11T04:27:09.493Z,5.85
2023-04-11T04:29:48.156Z,5.87
2023-04-11T04:32:37.126Z,5.92
2023-04-11T04:35:17.115Z,6.01
2023-04-11T04:38:04.650Z,6.10
2023-04-11T04:40:57.707Z,6.19
2023-04-11T04:43:33.226Z,6.30
2023-04-11T04:46:13.311Z,6.41
2023-04-11T04:48:50.151Z,6.52
2023-04-11T04:51:30.498Z,6.56
2023-04-11T04:54:05.239Z,6.58
2023-04-11T04:56:37.048Z,6.66
2023-04-11T04:59:09.998Z,6.77
2023-04-11T05:01:46.200Z,6.85
2023-04-11T05:04:18.548Z,6.94
2023-04-11T05:07:19.137Z,7.04
2023-04-11T05:10:02.285Z,7.15
2023-04-11T05:12:33.319Z,7.24
2023-04-11T05:15:14.704Z,7.32
2023-04-11T05:17:48.605Z,7.38
2023-04-11T05:20:19.742Z,7.48
2023-04-11T05:22:50.537Z,7.62
2023-04-11T05:25:22.626Z,7.78
2023-04-11T05:27:52.756Z,7.89
2023-04-11T05:30:24.818Z,7.96
2023-04-11T05:32:54.147Z,7.96
2023-04-11T05:35:24.000Z,8.03
2023-04-11T05:37:55.802Z,8.06
2023-04-11T05:40:24.985Z,8.09
2023-04-11T05:42:54.191Z,8.13
2023-04-11T05:45:23.542Z,8.14
2023-04-11T05:47:52.616Z,8.16
2023-04-11T05:50:22.244Z,8.24
2023-04-11T05:52:51.664Z,8.33
2023-04-11T05:55:21.002Z,8.39
2023-04-11T05:57:50.130Z,8.41
2023-04-11T06:00:20.816Z,8.42
2023-04-11T06:03:08.201Z,8.38
2023-04-11T06:05:37.298Z,8.40
2023-04-11T06:08:11.712Z,8.52
2023-04-11T06:10:40.867Z,8.63
2023-04-11T06:13:09.731Z,8.70
2023-04-11T06:15:38.894Z,8.75
2023-04-11T06:18:07.847Z,8.80
2023-04-11T06:20:37.020Z,8.83
2023-04-11T06:23:06.213Z,8.86
2023-04-11T06:25:35.407Z,8.90
2023-04-11T06:28:04.616Z,8.97
2023-04-11T06:30:33.716Z,9.07
2023-04-11T06:33:05.587Z,9.17
2023-04-11T06:35:36.342Z,9.27
2023-04-11T06:38:05.369Z,9.36
2023-04-11T06:40:34.711Z,9.52
2023-04-11T06:43:03.824Z,9.65
2023-04-11T06:45:33.514Z,9.79
2023-04-11T06:48:02.621Z,9.94
2023-04-11T06:50:31.898Z,10.20
2023-04-11T06:53:01.149Z,10.55
2023-04-11T06:55:30.371Z,10.85
2023-04-11T06:58:01.154Z,11.13
2023-04-11T07:00:35.316Z,11.23
2023-04-11T07:03:09.854Z,11.14
2023-04-11T07:05:40.130Z,10.99
2023-04-11T07:08:17.773Z,10.84
2023-04-11T07:10:47.792Z,10.75
2023-04-11T07:13:21.661Z,10.70
2023-04-11T07:15:55.299Z,10.65
2023-04-11T07:18:27.566Z,10.68
2023-04-11T07:20:57.291Z,10.73
2023-04-11T07:23:33.977Z,10.76
2023-04-11T07:26:09.717Z,10.76
2023-04-11T07:29:00.164Z,10.74
2023-04-11T07:31:39.600Z,10.75
2023-04-11T07:34:15.260Z,10.74
2023-04-11T07:37:10.006Z,10.87
2023-04-11T07:39:46.194Z,11.02
2023-04-11T07:42:29.645Z,11.12
2023-04-11T07:45:10.587Z,11.29
2023-04-11T07:47:43.356Z,11.45
2023-04-11T07:50:23.803Z,11.66
2023-04-11T07:52:59.093Z,11.90
2023-04-11T07:55:37.128Z,12.12
2023-04-11T07:58:08.007Z,12.25
2023-04-11T08:00:38.448Z,12.37
2023-04-11T08:03:17.474Z,12.55
2023-04-11T08:05:56.356Z,12.77
2023-04-11T08:08:33.981Z,12.96
2023-04-11T08:11:11.906Z,13.03
2023-04-11T08:13:51.822Z,13.14
2023-04-11T08:16:33.797Z,13.21
2023-04-11T08:19:06.984Z,13.20
2023-04-11T08:21:45.509Z,13.14
2023-04-11T08:24:14.800Z,13.19
2023-04-11T08:26:44.199Z,13.24
2023-04-11T08:29:15.146Z,13.29
2023-04-11T08:31:45.795Z,13.34
2023-04-11T08:34:14.980Z,13.44
2023-04-11T08:36:43.961Z,13.61
2023-04-11T08:39:12.959Z,13.73
2023-04-11T08:41:42.383Z,13.73
2023-04-11T08:44:13.114Z,13.62
2023-04-11T08:46:44.354Z,13.54
2023-04-11T08:49:13.673Z,13.58
2023-04-11T08:51:46.989Z,13.63
2023-04-11T08:54:16.054Z,13.70
2023-04-11T08:56:48.072Z,13.85
2023-04-11T08:59:25.193Z,13.99
2023-04-11T09:02:12.270Z,14.13
2023-04-11T09:04:44.533Z,14.27
2023-04-11T09:07:23.633Z,14.34
2023-04-11T09:09:55.039Z,14.39
2023-04-11T09:12:48.416Z,14.48
2023-04-11T09:15:45.788Z,14.38
2023-04-11T09:18:54.781Z,14.34
2023-04-11T09:22:29.107Z,14.28
2023-04-11T09:25:11.791Z,14.23
2023-04-11T09:27:44.540Z,14.13
2023-04-11T09:30:47.502Z,14.13
2023-04-11T09:33:35.313Z,14.19
2023-04-11T09:36:32.471Z,14.11
2023-04-11T09:39:29.723Z,14.03
2023-04-11T09:42:30.340Z,14.05
2023-04-11T09:45:14.313Z,14.09
2023-04-11T09:48:09.900Z,14.25
2023-04-11T09:51:00.370Z,14.44
2023-04-11T09:53:43.519Z,14.61
2023-04-11T09:56:29.556Z,14.65
2023-04-11T09:59:24.039Z,14.74
2023-04-11T10:02:12.606Z,14.88
2023-04-11T10:04:48.821Z,15.00
2023-04-11T10:07:46.852Z,15.01
2023-04-11T10:10:30.826Z,15.00
2023-04-11T10:13:36.893Z,14.89
2023-04-11T10:16:25.718Z,14.89
2023-04-11T10:18:58.299Z,14.99
2023-04-11T10:21:34.028Z,15.05
2023-04-11T10:24:26.018Z,15.01
2023-04-11T10:27:18.596Z,15.08
2023-04-11T10:30:21.715Z,15.19
2023-04-11T10:33:28.581Z,15.29
2023-04-11T10:36:33.562Z,15.52
2023-04-11T10:39:58.751Z,15.75
2023-04-11T10:43:03.962Z,15.87
2023-04-11T10:46:38.230Z,15.90
2023-04-11T10:50:29.677Z,15.71
2023-04-11T10:57:11.217Z,15.82
2023-04-11T11:02:54.973Z,15.91
2023-04-11T11:05:33.536Z,16.15
2023-04-11T11:08:35.126Z,16.45
2023-04-11T11:11:19.539Z,16.57
2023-04-11T11:14:30.595Z,16.62
2023-04-11T11:17:31.642Z,16.52
2023-04-11T11:20:24.716Z,16.40
2023-04-11T11:23:09.680Z,16.37
2023-04-11T11:26:09.955Z,16.28
2023-04-11T11:28:55.408Z,16.25
2023-04-11T11:31:39.823Z,16.22
2023-04-11T11:34:26.949Z,16.31
2023-04-11T11:37:04.982Z,16.47
2023-04-11T11:39:46.718Z,16.44
2023-04-11T11:42:21.440Z,16.38
2023-04-11T11:45:13.441Z,16.32
2023-04-11T11:47:51.657Z,16.29
2023-04-11T11:50:32.543Z,16.30
2023-04-11T11:53:20.323Z,16.26
2023-04-11T11:56:16.289Z,16.15
2023-04-11T11:58:59.240Z,16.10
2023-04-11T12:01:44.460Z,16.17
2023-04-11T12:04:37.889Z,16.19
2023-04-11T12:07:19.177Z,16.21
2023-04-11T12:10:19.820Z,16.36
2023-04-11T12:13:00.889Z,16.35
2023-04-11T12:15:59.751Z,16.40
2023-04-11T12:18:45.232Z,16.50
2023-04-11T12:21:20.517Z,16.58
2023-04-11T12:24:00.810Z,16.65
2023-04-11T12:26:57.530Z,16.77
2023-04-11T12:29:36.713Z,16.80
2023-04-11T12:32:37.835Z,16.78
2023-04-11T12:35:14.961Z,16.73
2023-04-11T12:37:52.848Z,16.65
2023-04-11T12:40:29.899Z,16.54
2023-04-11T12:43:03.397Z,16.60
2023-04-11T12:45:40.879Z,16.63
2023-04-11T12:48:23.422Z,16.61
2023-04-11T12:51:11.259Z,16.61
2023-04-11T12:53:52.945Z,16.62
2023-04-11T12:57:09.822Z,16.61
2023-04-11T12:59:57.555Z,16.60
2023-04-11T13:02:33.061Z,16.64
2023-04-11T13:05:18.612Z,16.63
2023-04-11T13:07:53.346Z,16.68
2023-04-11T13:10:30.947Z,16.74
2023-04-11T13:16:05.114Z,16.74
2023-04-11T13:18:40.937Z,16.64
2023-04-11T13:21:15.119Z,16.47
2023-04-11T13:23:54.377Z,16.33
2023-04-11T13:26:33.006Z,16.24
2023-04-11T13:29:11.450Z,16.16
2023-04-11T13:31:44.636Z,15.92
2023-04-11T13:34:23.469Z,15.59
2023-04-11T13:37:00.496Z,15.19
2023-04-11T13:39:41.803Z,14.84
2023-04-11T13:42:21.152Z,14.56
2023-04-11T13:44:51.256Z,14.30
2023-04-11T13:47:42.296Z,14.09
2023-04-11T13:50:14.261Z,13.81
2023-04-11T13:52:51.829Z,13.49
2023-04-11T13:55:37.804Z,13.24
2023-04-11T13:58:29.828Z,13.00
2023-04-11T14:01:22.291Z,12.76
2023-04-11T14:04:04.492Z,12.60
2023-04-11T14:06:40.613Z,12.44
2023-04-11T14:09:12.253Z,12.30
2023-04-11T14:11:50.440Z,12.22
2023-04-11T14:14:34.493Z,12.21
2023-04-11T14:17:08.680Z,12.18
2023-04-11T14:19:45.274Z,12.12
2023-04-11T14:22:18.496Z,12.03
2023-04-11T14:24:51.329Z,11.94
2023-04-11T14:27:36.819Z,11.85
2023-04-11T14:30:12.459Z,11.80
2023-04-11T14:32:42.735Z,11.73
2023-04-11T14:35:15.687Z,11.69
2023-04-11T14:37:57.046Z,11.65
2023-04-11T14:40:31.146Z,11.60
2023-04-11T14:43:01.079Z,11.58
2023-04-11T14:45:30.902Z,11.51
2023-04-11T14:48:01.155Z,11.39
2023-04-11T14:50:33.118Z,11.24
2023-04-11T14:53:03.070Z,11.10
2023-04-11T14:55:34.832Z,10.91
2023-04-11T14:58:06.297Z,10.86
2023-04-11T15:00:50.004Z,10.81
2023-04-11T15:03:29.989Z,10.75
2023-04-11T15:06:05.422Z,10.73
2023-04-11T15:08:36.237Z,10.65
2023-04-11T15:11:25.698Z,10.55
2023-04-11T15:14:13.070Z,10.45
2023-04-11T15:16:54.287Z,10.34
2023-04-11T15:24:08.007Z,10.12
2023-04-11T15:27:37.744Z,10.04
2023-04-11T15:31:18.143Z,10.00
2023-04-11T15:34:11.600Z,10.00
2023-04-11T15:37:39.080Z,10.00
2023-04-11T15:40:48.809Z,9.84
2023-04-11T15:44:06.400Z,9.67
2023-04-11T16:06:07.724Z,9.35
2023-04-11T16:09:22.627Z,9.33
2023-04-11T16:12:04.182Z,9.28
2023-04-11T16:15:00.385Z,9.26
2023-04-11T16:17:51.581Z,9.25
2023-04-11T16:20:51.781Z,9.22
2023-04-11T16:23:44.039Z,9.24
2023-04-11T16:27:07.084Z,9.26
2023-04-11T16:30:37.353Z,9.15
2023-04-11T16:34:12.923Z,9.05
2023-04-11T16:36:57.940Z,9.00
2023-04-11T16:42:38.294Z,9.05
2023-04-11T16:45:56.421Z,9.07
2023-04-11T16:48:33.459Z,9.06
2023-04-11T16:51:58.651Z,9.02
2023-04-11T16:54:47.784Z,9.07
2023-04-11T17:01:45.644Z,9.07
2023-04-11T17:05:22.675Z,9.12
2023-04-11T17:08:28.493Z,9.16
2023-04-11T17:11:13.546Z,9.20
2023-04-11T17:14:09.548Z,9.21
2023-04-11T17:20:23.512Z,9.21
2023-04-11T17:27:06.760Z,9.23
2023-04-11T17:30:14.244Z,9.19
2023-04-11T17:33:31.046Z,9.18
2023-04-11T17:37:30.714Z,9.16
2023-04-11T17:46:30.429Z,9.10
2023-04-11T17:49:26.633Z,9.11
2023-04-11T18:03:24.559Z,9.22
2023-04-11T18:15:41.481Z,9.16
2023-04-11T18:26:23.152Z,9.07
2023-04-11T18:29:58.058Z,9.04
2023-04-11T18:32:51.909Z,9.05
2023-04-11T18:36:13.226Z,9.06
2023-04-11T18:39:44.913Z,9.07
2023-04-11T18:43:46.256Z,9.04
2023-04-11T18:51:02.532Z,8.97
2023-04-11T19:10:19.378Z,8.87
2023-04-11T19:13:54.631Z,8.88
2023-04-11T19:17:33.883Z,8.86
2023-04-11T19:20:39.885Z,8.80
2023-04-11T19:23:55.925Z,8.78
2023-04-11T19:27:13.507Z,8.75
2023-04-11T19:38:31.254Z,8.60
2023-04-11T19:42:42.809Z,8.59
2023-04-11T19:45:56.334Z,8.61
2023-04-11T19:56:54.096Z,8.54
2023-04-11T20:03:06.387Z,8.46
2023-04-11T20:18:55.012Z,8.39
2023-04-11T20:46:02.818Z,8.26
2023-04-11T20:52:30.393Z,8.26
2023-04-11T20:55:11.884Z,8.27
2023-04-11T20:57:58.842Z,8.26
2023-04-11T21:04:26.971Z,8.22
2023-04-11T21:07:22.822Z,8.21
2023-04-11T21:10:18.934Z,8.20
2023-04-11T21:13:51.228Z,8.19
2023-04-11T21:16:53.140Z,8.10
2023-04-11T21:20:24.652Z,8.07
2023-04-11T21:23:34.098Z,8.02
2023-04-11T21:29:27.790Z,7.95
2023-04-11T21:32:43.377Z,7.93
2023-04-11T21:35:49.461Z,7.92
2023-04-11T21:42:19.472Z,7.89
2023-04-11T21:57:07.403Z,7.76
2023-04-11T22:01:32.578Z,7.77
2023-04-11T22:04:26.289Z,7.74
2023-04-11T22:07:06.436Z,7.70
2023-04-11T22:09:50.697Z,7.73
2023-04-11T22:12:28.130Z,7.76
2023-04-11T22:15:02.359Z,7.75
2023-04-11T22:17:44.029Z,7.76
2023-04-11T22:20:28.562Z,7.77
2023-04-11T22:23:13.579Z,7.77
2023-04-11T22:26:00.001Z,7.74
2023-04-11T22:28:34.155Z,7.71
2023-04-11T22:31:09.162Z,7.72
2023-04-11T22:33:42.561Z,7.72
2023-04-11T22:36:19.034Z,7.73
2023-04-11T22:39:07.364Z,7.70
2023-04-11T22:41:40.096Z,7.69
2023-04-11T22:44:26.960Z,7.68
2023-04-11T22:47:13.392Z,7.68
2023-04-11T22:49:48.544Z,7.67
2023-04-11T22:52:24.728Z,7.66
2023-04-11T22:55:05.005Z,7.61
2023-04-11T22:57:35.267Z,7.60
2023-04-11T23:00:09.531Z,7.61
2023-04-11T23:02:40.283Z,7.62
2023-04-11T23:05:11.520Z,7.61
2023-04-11T23:07:43.485Z,7.62
2023-04-11T23:10:17.474Z,7.62
2023-04-11T23:12:50.211Z,7.63
2023-04-11T23:15:36.412Z,7.63
2023-04-11T23:18:09.163Z,7.63
2023-04-11T23:20:44.270Z,7.61
2023-04-11T23:23:17.232Z,7.60
2023-04-11T23:25:50.638Z,7.58
2023-04-11T23:28:31.896Z,7.56
2023-04-11T23:31:10.806Z,7.53
2023-04-11T23:33:46.044Z,7.51
2023-04-11T23:36:17.116Z,7.49
2023-04-11T23:38:56.697Z,7.47
2023-04-11T23:41:26.583Z,7.44
2023-04-11T23:43:58.645Z,7.39
2023-04-11T23:46:29.089Z,7.25
2023-04-11T23:48:59.042Z,7.22
2023-04-11T23:51:32.136Z,7.23
2023-04-11T23:54:02.728Z,7.23
2023-04-11T23:56:32.867Z,7.23
2023-04-11T23:59:08.263Z,7.22
